Time;durP1;ratioP1;P1;durP2;ratioP2;P2;SDS_P1;SDS_P2;PMS_P1;PMS_P2;Temp;Humidity;BMP_temperature;BMP_pressure;BME280_temperature;BME280_humidity;BME280_pressure;Samples;Min_cycle;Max_cycle;Signal;HPM_P1;HPM_P2
2023/10/02 00:02:05;;;;;;;7.85;4.78;;;;;;;15.57;97.87;100302.00;4917278;29;20043;-83
2023/10/02 00:04:34;;;;;;;8.18;4.70;;;;;;;15.55;96.85;100287.25;4933018;29;20032;-83
2023/10/02 00:07:06;;;;;;;8.02;5.15;;;;;;;15.57;97.12;100294.13;4990526;28;20119;-83
2023/10/02 00:09:34;;;;;;;5.88;4.35;;;;;;;15.79;96.92;100333.19;4990684;28;20086;-83
2023/10/02 00:12:01;;;;;;;8.13;5.00;;;;;;;15.44;96.74;100265.09;4974680;28;20030;-83
2023/10/02 00:14:34;;;;;;;9.38;5.28;;;;;;;15.40;97.57;100260.97;4990844;28;20030;-83
2023/10/02 00:19:35;;;;;;;8.52;4.68;;;;;;;15.75;98.51;100313.28;4990748;28;20035;-83
2023/10/02 00:22:05;;;;;;;6.25;4.57;;;;;;;15.82;99.39;100319.03;4974462;28;20398;-83
2023/10/02 00:24:37;;;;;;;7.68;5.05;;;;;;;15.60;99.29;100282.63;4974719;28;20359;-83
2023/10/02 00:27:03;;;;;;;;;;;;;;;15.77;99.10;100321.94;4999581;28;20051;-83
2023/10/02 00:29:28;;;;;;;6.80;5.00;;;;;;;15.71;96.83;100306.50;5052697;28;19909;-83
2023/10/02 00:31:55;;;;;;;8.57;5.50;;;;;;;15.70;96.06;100305.66;5051976;28;20107;-83
2023/10/02 00:34:32;;;;;;;8.88;5.85;;;;;;;15.75;95.80;100309.81;5034210;28;20036;-83
2023/10/02 00:37:06;;;;;;;9.98;5.25;;;;;;;15.64;96.02;100292.03;5052345;28;20029;-83
2023/10/02 00:39:35;;;;;;;8.55;5.93;;;;;;;15.85;95.84;100324.13;5052185;28;20132;-83
2023/10/02 00:45:01;;;;;;;6.97;4.93;;;;;;;15.71;96.16;100306.50;5051751;28;20362;-83
2023/10/02 00:47:42;;;;;;;7.93;5.05;;;;;;;15.86;96.85;100320.53;5052057;28;20499;-83
2023/10/02 00:50:11;;;;;;;8.25;5.22;;;;;;;15.87;96.63;100330.09;5034216;28;20476;-83
2023/10/02 00:52:40;;;;;;;8.77;5.40;;;;;;;15.70;97.45;100297.78;5051763;28;20066;-83
2023/10/02 00:55:07;;;;;;;7.85;5.40;;;;;;;15.80;98.94;100316.50;5051784;28;20029;-83
2023/10/02 00:57:35;;;;;;;8.13;4.88;;;;;;;15.82;98.80;100312.00;5051868;28;20083;-83
2023/10/02 01:00:18;;;;;;;7.60;4.60;;;;;;;15.66;99.08;100288.38;5052031;28;20071;-83
2023/10/02 01:02:45;;;;;;;11.13;5.60;;;;;;;15.71;99.05;100302.09;5051694;28;20025;-83
2023/10/02 01:05:15;;;;;;;7.28;4.68;;;;;;;15.78;99.42;100315.72;5051735;28;20036;-83
2023/10/02 01:07:42;;;;;;;6.78;4.47;;;;;;;15.77;99.59;100315.84;5033434;28;20546;-83
2023/10/02 01:10:17;;;;;;;11.73;5.57;;;;;;;15.68;99.59;100296.19;5051971;28;20025;-83
2023/10/02 01:12:46;;;;;;;7.47;5.55;;;;;;;15.60;99.22;100283.47;5051696;28;20021;-83
2023/10/02 01:15:12;;;;;;;7.18;5.25;;;;;;;15.65;98.92;100283.22;5051629;28;20087;-83
2023/10/02 01:17:45;;;;;;;7.85;5.20;;;;;;;15.66;98.71;100288.38;5051472;28;20452;-83
2023/10/02 01:20:20;;;;;;;11.23;6.13;;;;;;;15.77;99.31;100306.16;5051841;28;20029;-83
2023/10/02 01:22:52;;;;;;;11.85;6.13;;;;;;;15.79;99.45;100311.31;5051641;28;20025;-83
2023/10/02 01:25:24;;;;;;;9.05;6.13;;;;;;;15.78;99.48;100314.88;5033774;28;20028;-83
2023/10/02 01:27:53;;;;;;;8.15;6.55;;;;;;;15.58;99.56;100279.22;5051430;28;20055;-83
2023/10/02 01:30:21;;;;;;;10.13;6.75;;;;;;;15.71;99.26;100306.50;5033626;28;20027;-83
2023/10/02 01:35:49;;;;;;;7.55;5.90;;;;;;;15.82;100.00;100330.38;5051248;28;20029;-83
2023/10/02 01:38:33;;;;;;;7.50;6.30;;;;;;;15.76;100.00;100307.09;5051547;28;20053;-83
2023/10/02 01:41:03;;;;;;;10.23;6.50;;;;;;;15.75;100.00;100313.28;5051206;28;20483;-83
2023/10/02 01:43:39;;;;;;;9.98;6.40;;;;;;;15.67;100.00;100303.22;5051627;28;20064;-83
2023/10/02 01:46:06;;;;;;;11.00;5.82;;;;;;;15.83;100.00;100326.81;5033677;28;20024;-83
2023/10/02 01:48:36;;;;;;;8.02;5.80;;;;;;;15.75;100.00;100308.03;5051463;28;20048;-83
2023/10/02 01:51:15;;;;;;;9.00;5.95;;;;;;;15.60;100.00;100296.59;5051606;28;20028;-83
2023/10/02 01:53:51;;;;;;;9.63;6.03;;;;;;;15.73;100.00;100316.94;5052808;28;20041;-83
2023/10/02 01:56:18;;;;;;;7.53;5.97;;;;;;;15.69;100.00;100316.25;5037312;28;20572;-84
2023/10/02 01:58:45;;;;;;;7.50;5.53;;;;;;;15.41;100.00;100270.53;5054980;28;20453;-83
2023/10/02 02:01:11;;;;;;;8.30;6.28;;;;;;;15.62;100.00;100296.50;5055057;28;20025;-83
2023/10/02 02:03:41;;;;;;;8.02;5.72;;;;;;;15.66;100.00;100319.91;5054987;28;20029;-83
2023/10/02 02:06:10;;;;;;;8.07;6.10;;;;;;;15.77;100.00;100328.97;5055163;28;20135;-83
2023/10/02 02:08:43;;;;;;;7.68;5.82;;;;;;;15.50;100.00;100282.28;5036865;28;20095;-84
2023/10/02 02:11:15;;;;;;;8.32;6.20;;;;;;;15.61;100.00;100298.28;5055006;28;20025;-83
2023/10/02 02:13:51;;;;;;;9.15;6.10;;;;;;;15.60;100.00;100293.13;5036872;28;20043;-83
2023/10/02 02:16:22;;;;;;;9.70;6.70;;;;;;;15.77;100.00;100313.19;5054764;28;20109;-84
2023/10/02 02:18:50;;;;;;;7.60;6.22;;;;;;;15.73;100.00;100319.56;5054731;28;20033;-84
2023/10/02 02:21:18;;;;;;;9.43;6.78;;;;;;;15.73;100.00;100319.56;5054838;28;20028;-83
2023/10/02 02:23:45;;;;;;;8.90;7.38;;;;;;;15.42;100.00;100279.25;5054511;28;20032;-84
2023/10/02 02:26:20;;;;;;;10.60;7.55;;;;;;;15.48;100.00;100292.88;5036672;28;20227;-83
2023/10/02 02:28:46;;;;;;;9.73;6.57;;;;;;;15.64;100.00;100307.78;5054229;28;20025;-83
2023/10/02 02:31:29;;;;;;;9.52;6.78;;;;;;;15.57;100.00;100285.41;5036823;28;20491;-83
2023/10/02 02:33:57;;;;;;;8.70;6.30;;;;;;;15.52;100.00;100293.56;5054365;28;20090;-83
2023/10/02 02:36:23;;;;;;;12.20;6.50;;;;;;;15.35;100.00;100276.13;5036484;28;20031;-83
2023/10/02 02:39:04;;;;;;;8.43;5.95;;;;;;;15.51;100.00;100301.53;5054157;28;20025;-83
2023/10/02 02:41:30;;;;;;;10.18;6.03;;;;;;;15.67;100.00;100320.75;5054602;28;20021;-83
2023/10/02 02:43:55;;;;;;;10.23;6.30;;;;;;;15.63;100.00;100301.69;5054149;28;20475;-83
2023/10/02 02:46:22;;;;;;;10.73;7.20;;;;;;;15.52;100.00;100285.69;5054586;28;20028;-83
2023/10/02 02:48:49;;;;;;;9.70;6.15;;;;;;;15.47;100.00;100266.72;5054100;28;20043;-83
2023/10/02 02:51:15;;;;;;;9.68;5.55;;;;;;;15.75;100.00;100313.28;5054156;28;20021;-83
2023/10/02 02:53:40;;;;;;;9.10;6.18;;;;;;;15.54;100.00;100283.81;5053905;28;20048;-83
2023/10/02 02:56:28;;;;;;;10.15;6.35;;;;;;;15.70;100.00;100303.03;5053635;28;20044;-83
2023/10/02 02:58:55;;;;;;;7.10;5.75;;;;;;;15.69;100.00;100303.97;5053905;28;20044;-83
2023/10/02 03:01:22;;;;;;;9.10;6.07;;;;;;;15.74;100.00;100305.50;5053988;28;20094;-83
2023/10/02 03:03:59;;;;;;;7.90;5.82;;;;;;;15.67;100.00;100297.97;5035385;28;20032;-83
2023/10/02 03:06:24;;;;;;;8.38;5.63;;;;;;;15.77;100.00;100316.66;5036089;28;20496;-83
2023/10/02 03:08:53;;;;;;;8.57;5.82;;;;;;;15.66;100.00;100300.66;5035673;28;20063;-84
2023/10/02 03:11:19;;;;;;;7.85;5.88;;;;;;;15.70;100.00;100310.91;5053767;28;20053;-83
2023/10/02 03:13:49;;;;;;;7.45;6.10;;;;;;;15.77;100.00;100331.59;5035598;28;20500;-83
2023/10/02 03:16:18;;;;;;;12.20;6.97;;;;;;;15.60;100.00;100291.34;5053533;28;20071;-83
2023/10/02 03:18:44;;;;;;;8.30;6.25;;;;;;;15.62;100.00;100291.25;5053339;28;20029;-83
2023/10/02 03:21:22;;;;;;;11.27;7.00;;;;;;;15.73;100.00;100306.44;5053761;28;20029;-83
2023/10/02 03:23:49;;;;;;;8.18;5.93;;;;;;;15.60;100.00;100280.84;5035663;28;20383;-83
2023/10/02 03:29:02;;;;;;;9.52;6.03;;;;;;;15.78;100.00;100313.09;5053412;28;20029;-83
2023/10/02 03:31:51;;;;;;;11.32;6.43;;;;;;;15.57;100.00;100275.75;5050552;28;20068;-83
2023/10/02 03:34:29;;;;;;;10.40;6.88;;;;;;;15.61;100.00;100292.19;5053385;28;20031;-84
2023/10/02 03:36:59;;;;;;;9.45;6.13;;;;;;;15.65;100.00;100293.75;5035228;28;20032;-83
2023/10/02 03:42:21;;;;;;;7.57;6.05;;;;;;;15.67;100.00;100300.59;5053542;28;20082;-84
2023/10/02 03:44:47;;;;;;;9.35;5.85;;;;;;;15.61;100.00;100279.06;5052987;28;20040;-83
2023/10/02 03:47:13;;;;;;;11.05;6.63;;;;;;;15.64;100.00;100292.03;5053141;28;20132;-83
2023/10/02 03:49:43;;;;;;;11.93;6.50;;;;;;;15.58;100.00;100279.22;5035091;28;20025;-83
2023/10/02 03:52:13;;;;;;;9.75;6.57;;;;;;;15.57;100.00;100278.38;5052785;28;20132;-83
2023/10/02 03:54:39;;;;;;;10.25;6.72;;;;;;;15.77;100.00;100319.28;5034933;28;20087;-84
2023/10/02 03:57:07;;;;;;;10.35;6.38;;;;;;;15.69;100.00;100306.59;5052618;28;20029;-83
2023/10/02 03:59:32;;;;;;;8.02;6.28;;;;;;;15.63;100.00;100293.81;5052952;28;20112;-84
2023/10/02 04:04:46;;;;;;;13.82;7.05;;;;;;;15.64;100.00;100294.66;5052454;28;20040;-83
2023/10/02 04:07:12;;;;;;;10.80;6.47;;;;;;;15.64;100.00;100287.63;5052835;28;20483;-84
2023/10/02 04:09:37;;;;;;;10.40;6.95;;;;;;;15.69;100.00;100297.88;5052770;28;20041;-83
2023/10/02 04:12:06;;;;;;;12.35;6.70;;;;;;;15.66;100.00;100284.91;5052477;28;20025;-83
2023/10/02 04:14:32;;;;;;;9.18;6.93;;;;;;;15.73;100.00;100294.16;5052534;28;20104;-84
2023/10/02 04:19:47;;;;;;;16.45;9.35;;;;;;;15.74;100.00;100301.06;5052639;28;20451;-83
2023/10/02 04:22:28;;;;;;;14.73;8.70;;;;;;;15.55;100.00;100266.25;5052554;28;20021;-83
2023/10/02 04:24:58;;;;;;;13.45;9.32;;;;;;;15.52;100.00;100264.69;5034306;28;20793;-83
2023/10/02 04:27:26;;;;;;;15.05;8.55;;;;;;;15.36;100.00;100242.84;5052374;28;20368;-84
2023/10/02 04:32:42;;;;;;;14.30;8.65;;;;;;;15.52;100.00;100277.81;5052408;28;20532;-83
2023/10/02 04:37:57;;;;;;;11.25;7.43;;;;;;;15.67;100.00;100299.72;5052155;28;20052;-83
2023/10/02 04:40:23;;;;;;;9.65;7.20;;;;;;;15.40;100.00;100255.72;5052323;28;20037;-83
2023/10/02 04:42:58;;;;;;;11.63;7.57;;;;;;;15.48;100.00;100278.91;5052082;28;20071;-83
2023/10/02 04:45:26;;;;;;;10.77;6.97;;;;;;;15.39;100.00;100255.81;5052207;28;20069;-84
2023/10/02 04:47:55;;;;;;;10.82;7.07;;;;;;;15.63;100.00;100301.69;5034026;28;20036;-83
2023/10/02 04:52:55;;;;;;;14.63;6.78;;;;;;;15.63;100.00;100295.56;5051957;28;20476;-83
2023/10/02 04:55:42;;;;;;;12.52;7.65;;;;;;;15.72;100.00;100318.72;5051874;28;20431;-83
2023/10/02 04:58:14;;;;;;;10.32;6.85;;;;;;;15.73;100.00;100306.44;5051720;28;20021;-83
2023/10/02 05:03:29;;;;;;;10.52;7.40;;;;;;;15.67;100.00;100303.22;5052068;28;20034;-82
2023/10/02 05:05:58;;;;;;;11.70;7.53;;;;;;;15.71;100.00;100309.97;5033881;28;20047;-83
2023/10/02 05:08:35;;;;;;;8.55;6.45;;;;;;;15.67;100.00;100300.59;5033877;28;20040;-83
2023/10/02 05:11:06;;;;;;;10.00;6.75;;;;;;;15.65;100.00;100297.22;5050258;28;20037;-83
2023/10/02 05:13:53;;;;;;;7.88;5.63;;;;;;;15.76;100.00;100314.13;5051734;28;20056;-83
2023/10/02 05:16:34;;;;;;;8.38;6.22;;;;;;;15.67;100.00;100295.34;5033800;28;20055;-83
2023/10/02 05:19:04;;;;;;;7.43;6.25;;;;;;;15.68;100.00;100310.16;5051672;28;20048;-83
2023/10/02 05:21:36;;;;;;;9.93;6.68;;;;;;;15.57;100.00;100295.91;5051653;28;20048;-83
2023/10/02 05:24:12;;;;;;;50.20;27.88;;;;;;;15.61;100.00;100297.44;5051639;28;20480;-83
2023/10/02 05:26:44;;;;;;;26.02;18.00;;;;;;;15.60;100.00;100301.00;5050395;28;20025;-83
2023/10/02 05:31:58;;;;;;;13.73;8.85;;;;;;;15.57;100.00;100282.78;5055683;28;20124;-83
2023/10/02 05:34:23;;;;;;;10.18;7.13;;;;;;;15.75;100.00;100312.44;5055762;28;20112;-83
2023/10/02 05:39:39;;;;;;;11.93;6.43;;;;;;;15.83;100.00;100316.31;5055816;28;20483;-83
2023/10/02 05:42:14;;;;;;;12.88;6.63;;;;;;;15.68;100.00;100285.69;5055200;28;20033;-83
2023/10/02 05:44:43;;;;;;;10.23;6.47;;;;;;;15.71;100.00;100296.84;5055719;28;20035;-83
2023/10/02 05:47:11;;;;;;;12.68;7.45;;;;;;;15.74;100.00;100295.81;5055235;28;20036;-83
2023/10/02 05:49:47;;;;;;;14.52;8.40;;;;;;;15.77;100.00;100300.91;5055486;28;20028;-83
2023/10/02 05:52:18;;;;;;;112.40;60.63;;;;;;;15.86;100.00;100318.75;5055161;28;20025;-83
2023/10/02 05:54:47;;;;;;;46.55;26.73;;;;;;;15.75;100.00;100289.63;5055037;28;20392;-82
2023/10/02 05:57:14;;;;;;;32.22;20.27;;;;;;;15.94;100.00;100320.94;5054814;28;20036;-83
2023/10/02 05:59:44;;;;;;;23.02;14.55;;;;;;;15.76;100.00;100299.22;5055222;28;20554;-83
2023/10/02 06:02:15;;;;;;;14.05;8.13;;;;;;;15.88;100.00;100324.75;5055031;28;20365;-83
2023/10/02 06:04:47;;;;;;;;;;;;;;;15.87;100.00;100330.94;5055627;28;20144;-83
2023/10/02 06:10:24;;;;;;;9.98;6.65;;;;;;;15.81;100.00;100314.72;5050974;28;20307;-83
2023/10/02 06:12:50;;;;;;;9.93;5.93;;;;;;;15.81;100.00;100297.19;5055167;28;20035;-83
2023/10/02 06:15:43;;;;;;;11.88;6.65;;;;;;;16.06;100.00;100336.00;5053655;28;20029;-83
2023/10/02 06:18:07;;;;;;;11.18;6.30;;;;;;;16.10;100.00;100329.63;5038807;28;20033;-83
2023/10/02 06:20:33;;;;;;;13.57;6.50;;;;;;;16.14;100.00;100338.19;5043586;28;20108;-83
2023/10/02 06:23:19;;;;;;;9.00;6.60;;;;;;;16.21;100.00;100331.63;5026967;28;20041;-83
2023/10/02 06:25:44;;;;;;;7.95;5.60;;;;;;;16.31;100.00;100337.19;5050884;28;20037;-83
2023/10/02 06:28:27;;;;;;;10.15;6.07;;;;;;;16.38;100.00;100331.44;5053561;28;20025;-82
2023/10/02 06:30:54;;;;;;;13.13;7.10;;;;;;;16.39;100.00;100319.16;5052499;28;20025;-81
2023/10/02 06:33:21;;;;;;;10.85;6.35;;;;;;;16.42;100.00;100311.94;5054101;28;20115;-81
2023/10/02 06:35:57;;;;;;;11.50;6.60;;;;;;;16.63;100.00;100335.25;5053911;28;20048;-81
2023/10/02 06:38:32;;;;;;;12.13;6.18;;;;;;;16.57;100.00;100312.81;5053982;28;20036;-81
2023/10/02 06:40:59;;;;;;;10.70;6.30;;;;;;;16.68;100.00;100320.03;5053761;28;20021;-81
2023/10/02 06:43:29;;;;;;;8.85;5.97;;;;;;;16.76;100.00;100338.00;5054438;28;20087;-81
2023/10/02 06:46:06;;;;;;;9.50;6.35;;;;;;;16.70;100.00;100326.03;5054393;28;20021;-81
2023/10/02 06:48:43;;;;;;;7.72;5.68;;;;;;;16.81;100.00;100339.44;5054237;28;20423;-81
2023/10/02 06:51:15;;;;;;;12.38;6.07;;;;;;;16.86;100.00;100331.25;5053881;28;20032;-81
2023/10/02 06:53:40;;;;;;;8.00;5.40;;;;;;;16.70;100.00;100303.22;5054554;28;20357;-81
2023/10/02 06:56:13;;;;;;;10.30;6.35;;;;;;;16.96;100.00;100340.25;5053946;28;20116;-81
2023/10/02 06:58:49;;;;;;;11.98;6.18;;;;;;;16.90;100.00;100335.38;5054100;28;20025;-81
2023/10/02 07:01:19;;;;;;;10.80;5.90;;;;;;;16.97;100.00;100328.78;5053839;28;20025;-81
2023/10/02 07:03:52;;;;;;;12.65;6.82;;;;;;;17.13;100.00;100334.78;5053840;28;20052;-82
2023/10/02 07:06:19;;;;;;;8.35;5.60;;;;;;;17.30;100.00;100341.59;5053806;28;20103;-83
2023/10/02 07:11:35;;;;;;;9.82;5.60;;;;;;;17.37;100.00;100311.31;4992188;28;20040;-83
2023/10/02 07:14:03;;;;;;;12.65;6.38;;;;;;;17.53;100.00;100320.84;4991893;28;20086;-82
2023/10/02 07:16:32;;;;;;;9.68;6.28;;;;;;;17.79;100.00;100327.94;4991970;28;20114;-83
2023/10/02 07:18:59;;;;;;;13.27;7.70;;;;;;;17.99;100.00;100316.06;4991947;28;20045;-82
2023/10/02 07:21:27;;;;;;;10.55;6.38;;;;;;;18.35;100.00;100328.56;4992097;28;20037;-82
2023/10/02 07:23:53;;;;;;;13.02;7.20;;;;;;;18.53;99.58;100320.34;4991929;28;20093;-82
2023/10/02 07:26:19;;;;;;;11.95;7.28;;;;;;;18.88;98.36;100346.97;4991594;28;20030;-83
2023/10/02 07:28:52;;;;;;;10.60;6.85;;;;;;;18.98;97.93;100337.44;4975357;28;20047;-83
2023/10/02 07:31:21;;;;;;;10.38;6.07;;;;;;;19.13;98.09;100343.41;4991581;28;20023;-83
2023/10/02 07:33:46;;;;;;;10.35;6.50;;;;;;;19.13;97.42;100340.78;4991629;28;20061;-83
2023/10/02 07:36:16;;;;;;;12.40;6.78;;;;;;;19.18;96.98;100343.94;4991305;28;20194;-82
2023/10/02 07:38:45;;;;;;;12.27;6.35;;;;;;;19.24;96.94;100343.50;4975211;28;20038;-83
2023/10/02 07:41:24;;;;;;;8.40;6.70;;;;;;;19.20;97.24;100334.09;4991303;28;20105;-82
2023/10/02 07:43:53;;;;;;;11.95;6.40;;;;;;;19.23;97.43;100346.25;4991510;28;20031;-83
2023/10/02 07:46:21;;;;;;;9.75;6.38;;;;;;;19.32;97.96;100353.53;4991297;28;20125;-81
2023/10/02 07:48:57;;;;;;;13.00;6.95;;;;;;;19.30;98.17;100343.06;5025233;28;20041;-82
2023/10/02 07:51:30;;;;;;;10.65;7.68;;;;;;;19.14;98.14;100319.56;5052853;28;20020;-83
2023/10/02 07:53:59;;;;;;;11.85;6.97;;;;;;;19.29;98.24;100344.00;5053073;28;20099;-82
2023/10/02 07:56:27;;;;;;;12.27;6.95;;;;;;;19.35;98.21;100348.88;5053040;28;20021;-83
2023/10/02 07:58:55;;;;;;;10.63;6.95;;;;;;;19.20;98.29;100320.91;5052950;28;20025;-82
2023/10/02 08:01:27;;;;;;;8.82;6.25;;;;;;;19.29;98.15;100340.53;5052718;28;20546;-83
2023/10/02 08:03:52;;;;;;;10.00;6.60;;;;;;;19.16;98.17;100316.78;5052814;28;20029;-83
2023/10/02 08:06:37;;;;;;;12.38;7.10;;;;;;;19.06;98.38;100290.22;5052377;28;20032;-82
2023/10/02 08:11:54;;;;;;;9.15;5.95;;;;;;;19.46;98.95;100348.06;5052747;28;20099;-83
2023/10/02 08:14:42;;;;;;;11.82;6.10;;;;;;;19.04;98.72;100270.16;5052387;28;20421;-83
2023/10/02 08:17:18;;;;;;;11.18;6.70;;;;;;;19.47;98.58;100335.69;5052457;28;20025;-82
2023/10/02 08:19:54;;;;;;;11.35;6.53;;;;;;;19.50;97.75;100352.19;5052500;28;20075;-83
2023/10/02 08:22:20;;;;;;;12.57;6.20;;;;;;;19.52;98.03;100345.00;5034343;28;20078;-83
2023/10/02 08:24:46;;;;;;;12.48;5.72;;;;;;;19.40;98.25;100317.66;5052374;28;20465;-83
2023/10/02 08:27:14;;;;;;;12.18;6.15;;;;;;;19.66;98.82;100352.78;5052039;28;20029;-83
2023/10/02 08:29:41;;;;;;;9.73;5.60;;;;;;;19.71;98.50;100333.09;5052400;28;20044;-82
2023/10/02 08:32:07;;;;;;;9.88;5.75;;;;;;;19.66;98.22;100301.72;5052294;28;20021;-83
2023/10/02 08:34:32;;;;;;;8.73;5.85;;;;;;;19.61;97.63;100288.03;5052388;28;20033;-83
2023/10/02 08:37:12;;;;;;;9.88;5.20;;;;;;;20.07;96.95;100333.00;5052343;28;20035;-83
2023/10/02 08:39:38;;;;;;;5.78;4.57;;;;;;;20.05;95.62;100307.63;5052099;28;20033;-83
2023/10/02 08:42:10;;;;;;;11.20;6.03;;;;;;;20.34;94.05;100331.88;5052015;28;20029;-82
2023/10/02 08:44:42;;;;;;;7.82;5.60;;;;;;;20.42;92.71;100332.97;5052227;28;20107;-82
2023/10/02 08:47:23;;;;;;;8.48;4.57;;;;;;;20.38;93.08;100299.78;5051453;28;20488;-82
2023/10/02 08:49:49;;;;;;;9.13;4.60;;;;;;;20.46;92.63;100296.53;5051426;28;20029;-82
2023/10/02 08:52:14;;;;;;;5.80;4.40;;;;;;;20.80;92.40;100325.69;5051034;28;20031;-82
2023/10/02 08:54:41;;;;;;;9.65;5.22;;;;;;;21.00;91.52;100335.56;5051600;28;20087;-82
2023/10/02 08:57:08;;;;;;;5.55;4.38;;;;;;;20.99;90.95;100310.06;5051168;28;20021;-81
2023/10/02 08:59:38;;;;;;;9.77;5.22;;;;;;;21.23;90.46;100330.22;5031869;28;20547;-82
2023/10/02 09:02:14;;;;;;;7.28;4.43;;;;;;;21.29;90.52;100327.94;5049651;28;20036;-81
2023/10/02 09:04:51;;;;;;;7.72;4.25;;;;;;;21.29;89.97;100313.84;5051650;28;20112;-82
2023/10/02 09:08:01;;;;;;;9.43;5.22;;;;;;;21.29;89.29;100308.56;5033046;28;20067;-81
2023/10/02 09:10:28;;;;;;;8.32;5.20;;;;;;;21.45;89.79;100329.38;5031152;28;20025;-82
2023/10/02 09:13:13;;;;;;;8.35;4.88;;;;;;;21.56;89.37;100329.34;5030766;28;20080;-82
2023/10/02 09:15:44;;;;;;;8.65;5.13;;;;;;;21.45;89.72;100316.97;5030696;28;20022;-82
2023/10/02 09:18:22;;;;;;;8.90;5.40;;;;;;;21.50;89.47;100330.69;5030778;28;20022;-83
2023/10/02 09:21:12;;;;;;;7.68;4.90;;;;;;;21.53;89.15;100324.28;5029837;28;20076;-82
2023/10/02 09:23:49;;;;;;;5.75;4.50;;;;;;;21.52;89.66;100314.66;5031440;28;20030;-82
2023/10/02 09:26:23;;;;;;;9.43;5.28;;;;;;;21.68;90.01;100307.13;5030589;28;20048;-83
2023/10/02 09:28:58;;;;;;;6.85;4.55;;;;;;;21.88;89.66;100330.19;5013341;28;20021;-83
2023/10/02 09:31:28;;;;;;;7.25;4.97;;;;;;;21.89;87.28;100305.34;5029335;28;20021;-82
2023/10/02 09:33:55;;;;;;;8.77;5.78;;;;;;;21.92;86.23;100288.34;5013500;28;20036;-82
2023/10/02 09:36:35;;;;;;;8.15;5.40;;;;;;;22.02;86.51;100299.84;5031507;28;20026;-83
2023/10/02 09:39:31;;;;;;;8.02;4.80;;;;;;;21.91;86.35;100270.72;5031637;28;20428;-82
2023/10/02 09:41:54;;;;;;;6.20;4.50;;;;;;;22.06;84.24;100288.00;5031409;28;20060;-82
2023/10/02 09:44:27;;;;;;;6.65;4.35;;;;;;;22.14;84.12;100298.84;5031003;28;20025;-83
2023/10/02 09:46:53;;;;;;;7.50;3.90;;;;;;;21.96;83.79;100262.41;5028968;28;20034;-82
2023/10/02 09:49:30;;;;;;;6.68;4.72;;;;;;;22.04;83.98;100297.09;5030569;28;20021;-82
2023/10/02 09:52:14;;;;;;;8.10;4.60;;;;;;;22.06;83.34;100308.41;5029584;28;20052;-83
2023/10/02 09:55:00;;;;;;;7.38;5.28;;;;;;;21.76;83.18;100256.13;5029612;28;20507;-82
2023/10/02 09:57:31;;;;;;;6.53;4.95;;;;;;;21.98;81.72;100295.78;5029714;28;20065;-82
2023/10/02 09:59:57;;;;;;;8.07;5.38;;;;;;;21.73;80.58;100259.03;5028523;28;20037;-83
2023/10/02 10:13:26;;;;;;;8.85;4.78;;;;;;;21.71;81.17;100283.03;5031301;28;20076;-82
2023/10/02 10:16:19;;;;;;;11.10;5.53;;;;;;;21.59;81.21;100268.97;5034600;28;20037;-82
2023/10/02 10:19:26;;;;;;;10.52;4.90;;;;;;;21.65;81.48;100289.66;5034958;28;20079;-81
2023/10/02 10:21:56;;;;;;;8.57;5.45;;;;;;;21.43;80.09;100266.72;5034566;28;20057;-82
2023/10/02 10:24:31;;;;;;;10.80;5.63;;;;;;;21.54;78.36;100292.38;5016789;28;20392;-82
2023/10/02 10:26:57;;;;;;;7.60;5.18;;;;;;;21.46;76.62;100270.13;5034817;28;20029;-81
2023/10/02 10:29:41;;;;;;;9.32;6.03;;;;;;;21.39;77.64;100259.16;5034453;28;20056;-81
2023/10/02 10:32:23;;;;;;;9.30;5.90;;;;;;;21.26;78.11;100234.63;5034528;28;20053;-82
2023/10/02 10:35:15;;;;;;;6.68;5.40;;;;;;;21.47;78.92;100264.69;5034611;28;20431;-81
2023/10/02 10:37:42;;;;;;;7.97;4.97;;;;;;;21.14;79.26;100207.31;5034574;28;20053;-81
2023/10/02 10:40:43;;;;;;;7.97;4.85;;;;;;;21.41;78.09;100254.59;5034463;28;20025;-81
2023/10/02 10:42:59;;;;;;;9.25;5.10;;;;;;;21.29;78.37;100229.91;5034267;28;20167;-82
2023/10/02 10:45:26;;;;;;;8.23;5.50;;;;;;;21.42;78.50;100249.16;5034262;28;20030;-82
2023/10/02 10:47:52;;;;;;;7.72;4.80;;;;;;;21.50;78.56;100248.53;5034354;28;20480;-82
2023/10/02 10:50:29;;;;;;;10.15;5.25;;;;;;;21.40;78.85;100240.47;5033889;28;20092;-82
2023/10/02 10:53:25;;;;;;;7.05;4.88;;;;;;;21.30;79.27;100209.56;5034078;28;20021;-82
2023/10/02 10:55:54;;;;;;;9.35;5.18;;;;;;;21.52;79.71;100240.44;5034136;28;20038;-81
2023/10/02 10:58:36;;;;;;;7.95;4.97;;;;;;;21.42;79.33;100224.47;5033992;28;20021;-82
2023/10/02 11:01:05;;;;;;;8.70;4.88;;;;;;;21.29;79.57;100195.47;5034029;28;20033;-82
2023/10/02 11:03:31;;;;;;;7.63;4.65;;;;;;;21.68;79.47;100247.00;5033750;28;20074;-82
2023/10/02 11:06:02;;;;;;;7.35;5.10;;;;;;;21.61;79.89;100235.22;5034280;28;20030;-82
2023/10/02 11:08:28;;;;;;;8.47;5.00;;;;;;;21.66;80.22;100243.66;5015993;28;20052;-82
2023/10/02 11:11:01;;;;;;;6.28;4.38;;;;;;;21.74;80.25;100242.97;5034058;28;20034;-82
2023/10/02 11:13:50;;;;;;;6.43;4.43;;;;;;;21.67;79.79;100229.41;5033682;28;20546;-82
2023/10/02 11:16:43;;;;;;;7.20;4.70;;;;;;;21.72;80.34;100222.88;5033818;28;20028;-82
2023/10/02 11:22:22;;;;;;;6.55;4.20;;;;;;;21.76;79.24;100233.09;5033627;28;20424;-82
2023/10/02 11:24:51;;;;;;;7.65;4.20;;;;;;;21.81;79.82;100230.91;5033411;28;20033;-82
2023/10/02 11:27:18;;;;;;;7.35;4.25;;;;;;;21.86;80.35;100225.19;5033439;28;20026;-82
2023/10/02 11:30:00;;;;;;;6.45;4.60;;;;;;;21.82;80.66;100208.69;5015729;28;20091;-82
2023/10/02 11:32:45;;;;;;;5.90;4.13;;;;;;;21.76;79.78;100200.44;5032698;28;20025;-82
2023/10/02 11:35:11;;;;;;;6.20;4.20;;;;;;;21.89;79.53;100212.53;5038090;28;20166;-82
2023/10/02 11:37:44;;;;;;;6.00;4.28;;;;;;;21.88;79.26;100199.41;5051632;28;20439;-83
2023/10/02 11:40:10;;;;;;;7.55;4.43;;;;;;;21.94;79.66;100198.88;5051758;28;20064;-82
2023/10/02 11:42:36;;;;;;;6.93;4.55;;;;;;;22.10;78.96;100209.03;5051338;28;20029;-83
2023/10/02 11:45:02;;;;;;;7.38;4.20;;;;;;;22.18;78.53;100222.50;5051572;28;20033;-82
2023/10/02 11:47:28;;;;;;;6.85;3.92;;;;;;;22.00;79.17;100192.22;5051396;28;20017;-83
2023/10/02 11:49:54;;;;;;;6.97;4.82;;;;;;;22.19;78.54;100220.69;5033786;28;20605;-83
2023/10/02 11:52:19;;;;;;;7.10;4.70;;;;;;;21.95;78.84;100181.97;5033492;28;20103;-83
2023/10/02 11:54:44;;;;;;;7.25;4.45;;;;;;;22.22;78.34;100223.09;5052545;28;20021;-83
2023/10/02 11:57:10;;;;;;;6.00;3.70;;;;;;;22.18;77.16;100201.28;5052348;28;20025;-83
2023/10/02 11:59:47;;;;;;;10.45;4.97;;;;;;;22.13;77.47;100169.84;5052806;28;20033;-83
2023/10/02 12:02:16;;;;;;;5.22;3.95;;;;;;;22.25;78.03;100178.56;5052492;28;20020;-83
2023/10/02 12:04:43;;;;;;;5.20;4.10;;;;;;;22.45;78.39;100202.50;5052836;28;20107;-83
2023/10/02 12:07:10;;;;;;;8.35;4.28;;;;;;;22.45;77.53;100190.06;5009478;28;20601;-83
2023/10/02 12:09:35;;;;;;;5.82;3.90;;;;;;;22.60;77.33;100199.34;5009654;28;20164;-83
2023/10/02 12:12:01;;;;;;;5.07;3.75;;;;;;;22.67;77.93;100191.69;4993745;28;20137;-83
2023/10/02 12:14:27;;;;;;;7.63;3.90;;;;;;;22.60;77.71;100170.13;4993237;28;20552;-83
2023/10/02 12:16:57;;;;;;;5.57;4.00;;;;;;;22.84;77.74;100195.50;5009947;28;20049;-83
2023/10/02 12:19:25;;;;;;;5.28;3.88;;;;;;;22.85;77.19;100184.72;5009851;28;20042;-83
2023/10/02 12:21:51;;;;;;;5.68;3.90;;;;;;;22.91;76.76;100186.84;5009911;28;20042;-83
2023/10/02 12:24:17;;;;;;;5.88;4.30;;;;;;;22.81;76.22;100159.41;5009705;28;20034;-83
2023/10/02 12:26:43;;;;;;;6.47;4.25;;;;;;;22.93;76.70;100173.44;5010320;28;20037;-83
2023/10/02 12:29:10;;;;;;;5.22;4.28;;;;;;;23.08;77.26;100187.16;5008934;28;20042;-83
2023/10/02 12:31:36;;;;;;;5.88;4.07;;;;;;;22.95;77.39;100152.06;5008391;28;20022;-83
2023/10/02 12:34:03;;;;;;;7.03;4.60;;;;;;;23.13;77.55;100177.81;5008706;28;20123;-83
2023/10/02 12:36:28;;;;;;;5.43;4.32;;;;;;;22.93;75.85;100144.22;4989128;28;20141;-83
2023/10/02 12:38:54;;;;;;;6.13;4.72;;;;;;;22.86;76.36;100129.78;4994747;28;20576;-83